createdAt,value
2019-01-19T00:00:13.613Z,6.00
2019-01-19T00:01:13.729Z,6.00
2019-01-19T00:02:13.622Z,6.00
2019-01-19T00:03:13.662Z,4.90
2019-01-19T00:04:13.668Z,4.60
2019-01-19T00:05:13.696Z,4.80
2019-01-19T00:06:13.745Z,3.90
2019-01-19T00:07:13.703Z,3.70
2019-01-19T00:08:13.724Z,4.30
2019-01-19T00:09:13.763Z,4.60
2019-01-19T00:10:13.759Z,6.50
2019-01-19T00:11:13.818Z,5.00
2019-01-19T00:12:13.786Z,5.10
2019-01-19T00:13:13.803Z,5.20
2019-01-19T00:14:13.824Z,4.30
2019-01-19T00:15:13.865Z,4.40
2019-01-19T00:16:13.980Z,5.60
2019-01-19T00:17:13.893Z,4.80
2019-01-19T00:18:13.901Z,5.00
2019-01-19T00:19:13.916Z,4.10
2019-01-19T00:20:13.939Z,4.70
2019-01-19T00:21:14.011Z,4.40
2019-01-19T00:22:13.979Z,3.80
2019-01-19T00:23:13.975Z,3.90
2019-01-19T00:24:13.991Z,4.30
2019-01-19T00:25:14.003Z,4.10
2019-01-19T00:26:14.117Z,4.00
2019-01-19T00:27:14.039Z,4.90
2019-01-19T00:28:14.059Z,5.90
2019-01-19T00:29:14.074Z,6.10
2019-01-19T00:30:14.093Z,7.10
2019-01-19T00:31:14.216Z,6.90
2019-01-19T00:32:14.134Z,6.40
2019-01-19T00:33:14.149Z,5.80
2019-01-19T00:34:14.178Z,6.00
2019-01-19T00:35:18.014Z,6.50
2019-01-19T00:36:14.348Z,6.50
2019-01-19T00:37:14.224Z,5.90
2019-01-19T00:38:14.231Z,6.90
2019-01-19T00:39:14.242Z,5.60
2019-01-19T00:40:14.278Z,5.10
2019-01-19T00:41:14.380Z,5.80
2019-01-19T00:42:14.291Z,5.40
2019-01-19T00:43:14.319Z,5.20
2019-01-19T00:44:14.332Z,4.80
2019-01-19T00:45:14.354Z,4.90
2019-01-19T00:46:14.446Z,8.60
2019-01-19T00:47:14.396Z,5.10
2019-01-19T00:48:14.404Z,4.60
2019-01-19T00:49:14.428Z,5.80
2019-01-19T00:50:14.432Z,5.40
2019-01-19T00:51:14.612Z,5.20
2019-01-19T00:52:14.453Z,5.30
2019-01-19T00:53:14.494Z,5.00
2019-01-19T00:54:14.488Z,6.00
2019-01-19T00:55:14.528Z,5.40
2019-01-19T00:56:14.575Z,6.30
2019-01-19T00:57:14.565Z,5.50
2019-01-19T00:58:14.567Z,6.90
2019-01-19T00:59:14.592Z,5.30
2019-01-19T01:00:14.593Z,5.70
2019-01-19T01:01:14.834Z,5.60
2019-01-19T01:02:14.747Z,5.00
2019-01-19T01:03:14.641Z,5.20
2019-01-19T01:04:14.724Z,5.10
2019-01-19T01:05:14.705Z,6.10
2019-01-19T01:06:14.852Z,5.20
2019-01-19T01:07:14.708Z,5.00
2019-01-19T01:08:14.852Z,5.30
2019-01-19T01:09:14.741Z,5.50
2019-01-19T01:10:14.756Z,5.70
2019-01-19T01:11:14.884Z,6.10
2019-01-19T01:12:14.793Z,5.60
2019-01-19T01:13:14.804Z,5.10
2019-01-19T01:14:14.952Z,5.00
2019-01-19T01:15:14.967Z,5.10
2019-01-19T01:16:15.011Z,6.90
2019-01-19T01:17:14.886Z,5.50
2019-01-19T01:18:14.900Z,5.00
2019-01-19T01:19:14.931Z,5.00
2019-01-19T01:20:14.923Z,5.00
2019-01-19T01:21:15.071Z,5.70
2019-01-19T01:22:14.955Z,5.90
2019-01-19T01:23:14.978Z,5.40
2019-01-19T01:24:14.988Z,5.80
2019-01-19T01:25:15.011Z,7.00
2019-01-19T01:26:15.095Z,5.40
2019-01-19T01:27:15.049Z,5.50
2019-01-19T01:28:15.067Z,5.20
2019-01-19T01:29:15.083Z,5.50
2019-01-19T01:30:15.098Z,6.00
2019-01-19T01:31:15.265Z,8.60
2019-01-19T01:32:15.135Z,6.10
2019-01-19T01:33:15.268Z,4.90
2019-01-19T01:34:15.182Z,6.10
2019-01-19T01:35:15.176Z,5.70
2019-01-19T01:36:15.293Z,6.30
2019-01-19T01:37:15.201Z,5.70
2019-01-19T01:38:15.216Z,6.20
2019-01-19T01:39:15.282Z,6.30
2019-01-19T01:40:15.395Z,6.70
2019-01-19T01:41:15.381Z,7.30
2019-01-19T01:42:15.417Z,7.90
2019-01-19T01:43:15.437Z,5.80
2019-01-19T01:44:15.338Z,6.50
2019-01-19T01:45:15.361Z,7.60
2019-01-19T01:46:15.594Z,7.10
2019-01-19T01:47:15.407Z,8.70
2019-01-19T01:48:15.403Z,8.00
2019-01-19T01:49:15.423Z,8.60
2019-01-19T01:50:15.423Z,7.90
2019-01-19T01:51:15.608Z,9.50
2019-01-19T01:52:15.585Z,10.30
2019-01-19T01:53:15.493Z,9.80
2019-01-19T01:54:15.504Z,9.60
2019-01-19T01:55:15.509Z,10.80
2019-01-19T01:56:15.623Z,10.60
2019-01-19T01:57:15.560Z,12.40
2019-01-19T01:58:15.560Z,11.30
2019-01-19T01:59:15.573Z,12.00
2019-01-19T02:00:15.594Z,10.80
2019-01-19T02:01:15.707Z,12.20
2019-01-19T02:02:15.646Z,12.80
2019-01-19T02:03:15.662Z,12.50
2019-01-19T02:04:15.651Z,12.50
2019-01-19T02:05:15.698Z,12.90
2019-01-19T02:06:15.810Z,12.70
2019-01-19T02:07:15.707Z,13.40
2019-01-19T02:08:15.748Z,12.90
2019-01-19T02:09:15.766Z,12.70
2019-01-19T02:10:15.774Z,13.40
2019-01-19T02:11:15.813Z,13.30
2019-01-19T02:12:15.824Z,16.80
2019-01-19T02:13:15.837Z,15.10
2019-01-19T02:14:15.833Z,14.30
2019-01-19T02:15:15.848Z,14.50
2019-01-19T02:16:15.919Z,14.10
2019-01-19T02:17:16.013Z,14.40
2019-01-19T02:18:16.015Z,14.40
2019-01-19T02:19:15.917Z,14.00
2019-01-19T02:20:15.941Z,14.70
2019-01-19T02:21:16.106Z,15.00
2019-01-19T02:22:15.978Z,14.40
2019-01-19T02:23:16.031Z,14.10
2019-01-19T02:24:16.014Z,13.50
2019-01-19T02:25:16.138Z,13.70
2019-01-19T02:26:16.072Z,13.20
2019-01-19T02:27:16.167Z,13.90
2019-01-19T02:28:16.184Z,15.00
2019-01-19T02:29:16.100Z,14.40
2019-01-19T02:30:16.096Z,14.20
2019-01-19T02:31:16.207Z,14.80
2019-01-19T02:32:16.145Z,14.40
2019-01-19T02:33:16.135Z,14.70
2019-01-19T02:34:16.161Z,14.40
2019-01-19T02:35:16.170Z,14.70
2019-01-19T02:36:16.238Z,13.60
2019-01-19T02:37:16.226Z,14.60
2019-01-19T02:38:16.352Z,14.80
2019-01-19T02:39:16.260Z,14.50
2019-01-19T02:40:16.535Z,15.50
2019-01-19T02:41:16.287Z,14.00
2019-01-19T02:42:16.296Z,15.50
2019-01-19T02:43:16.434Z,15.70
2019-01-19T02:44:16.332Z,14.50
2019-01-19T02:45:16.507Z,16.30
2019-01-19T02:46:16.367Z,15.80
2019-01-19T02:47:16.426Z,16.70
2019-01-19T02:48:16.406Z,17.10
2019-01-19T02:49:16.406Z,16.60
2019-01-19T02:50:16.547Z,16.90
2019-01-19T02:51:16.464Z,16.90
2019-01-19T02:52:16.479Z,17.60
2019-01-19T02:53:16.481Z,17.90
2019-01-19T02:54:16.629Z,18.00
2019-01-19T02:55:16.786Z,17.90
2019-01-19T02:56:16.663Z,18.20
2019-01-19T02:57:16.563Z,18.30
2019-01-19T02:58:16.696Z,18.70
2019-01-19T02:59:16.596Z,20.00
2019-01-19T03:00:16.755Z,18.30
2019-01-19T03:01:16.644Z,20.40
2019-01-19T03:02:16.750Z,19.40
2019-01-19T03:03:16.828Z,20.50
2019-01-19T03:04:16.680Z,21.30
2019-01-19T03:05:16.746Z,20.20
2019-01-19T03:06:16.685Z,19.20
2019-01-19T03:07:16.702Z,19.10
2019-01-19T03:08:16.854Z,19.80
2019-01-19T03:09:16.754Z,19.50
2019-01-19T03:10:16.823Z,19.20
2019-01-19T03:11:16.781Z,21.00
2019-01-19T03:12:16.926Z,21.00
2019-01-19T03:13:16.963Z,19.90
2019-01-19T03:14:16.827Z,20.60
2019-01-19T03:15:16.848Z,21.40
2019-01-19T03:16:16.869Z,20.60
2019-01-19T03:17:16.931Z,20.40
2019-01-19T03:18:17.021Z,21.70
2019-01-19T03:19:17.028Z,20.40
2019-01-19T03:20:17.048Z,20.60
2019-01-19T03:21:17.066Z,20.70
2019-01-19T03:22:16.992Z,21.60
2019-01-19T03:23:17.199Z,21.60
2019-01-19T03:24:16.994Z,22.20
2019-01-19T03:25:17.132Z,21.20
2019-01-19T03:26:17.159Z,22.50
2019-01-19T03:27:17.042Z,22.50
2019-01-19T03:28:17.235Z,21.40
2019-01-19T03:29:17.092Z,22.00
2019-01-19T03:30:17.213Z,22.00
2019-01-19T03:31:17.158Z,22.20
2019-01-19T03:32:17.156Z,23.00
2019-01-19T03:33:17.206Z,24.00
2019-01-19T03:34:17.282Z,23.60
2019-01-19T03:35:17.185Z,23.80
2019-01-19T03:36:17.315Z,24.60
2019-01-19T03:37:17.208Z,24.70
2019-01-19T03:38:17.283Z,24.90
2019-01-19T03:39:17.267Z,24.00
2019-01-19T03:40:17.392Z,23.80
2019-01-19T03:41:17.281Z,23.20
2019-01-19T03:42:17.412Z,24.00
2019-01-19T03:43:17.577Z,23.30
2019-01-19T03:44:17.445Z,24.60
2019-01-19T03:45:17.365Z,26.60
2019-01-19T03:46:17.488Z,26.20
2019-01-19T03:47:17.494Z,27.40
2019-01-19T03:48:17.479Z,26.00
2019-01-19T03:49:17.527Z,27.40
2019-01-19T03:50:17.542Z,26.80
2019-01-19T03:51:17.434Z,25.70
2019-01-19T03:52:17.467Z,25.50
2019-01-19T03:53:17.627Z,25.50
2019-01-19T03:54:17.491Z,26.70
2019-01-19T03:55:17.627Z,25.40
2019-01-19T03:56:17.529Z,26.30
2019-01-19T03:57:17.525Z,24.10
2019-01-19T03:58:17.652Z,23.70
2019-01-19T03:59:17.599Z,24.40
2019-01-19T04:00:17.719Z,22.90
2019-01-19T04:01:17.735Z,24.60
2019-01-19T04:02:17.637Z,24.30
2019-01-19T04:03:17.698Z,24.00
2019-01-19T04:04:17.655Z,22.60
2019-01-19T04:05:17.674Z,22.30
2019-01-19T04:06:17.685Z,22.40
2019-01-19T04:07:17.733Z,22.30
2019-01-19T04:08:17.983Z,23.00
2019-01-19T04:09:17.853Z,21.90
2019-01-19T04:10:17.871Z,22.50
2019-01-19T04:11:17.884Z,22.60
2019-01-19T04:12:17.803Z,22.40
2019-01-19T04:13:17.873Z,22.60
2019-01-19T04:14:17.818Z,21.90
2019-01-19T04:15:17.834Z,20.90
2019-01-19T04:16:17.976Z,20.30
2019-01-19T04:17:17.876Z,20.60
2019-01-19T04:18:18.097Z,21.60
2019-01-19T04:19:17.890Z,23.80
2019-01-19T04:20:17.905Z,22.70
2019-01-19T04:21:17.941Z,22.00
2019-01-19T04:22:17.957Z,23.40
2019-01-19T04:23:18.052Z,21.60
2019-01-19T04:24:17.965Z,22.30
2019-01-19T04:25:17.982Z,21.20
2019-01-19T04:26:18.130Z,21.00
2019-01-19T04:27:18.012Z,22.40
2019-01-19T04:28:18.261Z,19.10
2019-01-19T04:29:18.182Z,19.80
2019-01-19T04:30:18.198Z,21.30
2019-01-19T04:31:18.108Z,21.20
2019-01-19T04:32:18.122Z,20.20
2019-01-19T04:33:18.403Z,21.30
2019-01-19T04:34:18.136Z,21.10
2019-01-19T04:35:18.287Z,20.30
2019-01-19T04:36:21.704Z,21.10
2019-01-19T04:37:18.320Z,20.60
2019-01-19T04:38:18.321Z,21.60
2019-01-19T04:39:18.339Z,20.50
2019-01-19T04:40:18.253Z,20.90
2019-01-19T04:41:18.268Z,22.00
2019-01-19T04:42:18.287Z,21.10
2019-01-19T04:43:18.564Z,21.30
2019-01-19T04:44:18.353Z,23.40
2019-01-19T04:45:18.329Z,20.60
2019-01-19T04:46:18.348Z,20.40
2019-01-19T04:47:18.366Z,19.80
2019-01-19T04:48:18.482Z,22.30
2019-01-19T04:49:18.506Z,21.90
2019-01-19T04:50:18.528Z,20.50
2019-01-19T04:51:18.415Z,23.80
2019-01-19T04:52:18.428Z,21.70
2019-01-19T04:53:18.560Z,21.20
2019-01-19T04:54:18.451Z,21.20
2019-01-19T04:55:18.503Z,21.90
2019-01-19T04:56:18.626Z,20.40
2019-01-19T04:57:18.523Z,20.80
2019-01-19T04:58:18.550Z,22.10
2019-01-19T04:59:18.701Z,22.80
2019-01-19T05:00:18.565Z,21.90
2019-01-19T05:01:18.601Z,22.10
2019-01-19T05:02:18.616Z,19.60
2019-01-19T05:03:18.623Z,20.10
2019-01-19T05:04:18.779Z,21.30
2019-01-19T05:05:18.771Z,21.30
2019-01-19T05:06:20.341Z,20.70
2019-01-19T05:07:18.799Z,20.00
2019-01-19T05:08:18.717Z,20.80
2019-01-19T05:09:18.987Z,19.90
2019-01-19T05:10:18.746Z,20.40
2019-01-19T05:11:18.760Z,19.50
2019-01-19T05:12:18.882Z,21.60
2019-01-19T05:13:18.786Z,18.70
2019-01-19T05:14:18.963Z,21.20
2019-01-19T05:15:18.856Z,19.50
2019-01-19T05:16:18.837Z,20.10
2019-01-19T05:17:18.873Z,20.70
2019-01-19T05:18:18.871Z,20.40
2019-01-19T05:19:19.147Z,19.80
2019-01-19T05:20:19.017Z,20.20
2019-01-19T05:21:19.031Z,19.50
2019-01-19T05:22:18.930Z,19.80
2019-01-19T05:23:19.065Z,19.80
2019-01-19T05:24:19.180Z,20.10
2019-01-19T05:25:18.974Z,19.90
2019-01-19T05:26:19.017Z,19.20
2019-01-19T05:27:19.015Z,19.80
2019-01-19T05:28:19.041Z,20.00
2019-01-19T05:29:19.205Z,20.10
2019-01-19T05:30:19.061Z,20.50
2019-01-19T05:31:19.065Z,20.40
2019-01-19T05:32:19.082Z,21.60
2019-01-19T05:33:19.098Z,20.00
2019-01-19T05:34:19.161Z,21.20
2019-01-19T05:35:19.158Z,19.00
2019-01-19T05:36:19.149Z,20.20
2019-01-19T05:37:19.173Z,23.00
2019-01-19T05:38:19.319Z,20.60
2019-01-19T05:39:19.330Z,20.80
2019-01-19T05:40:19.229Z,20.40
2019-01-19T05:41:19.370Z,20.10
2019-01-19T05:42:19.378Z,19.40
2019-01-19T05:43:19.392Z,19.30
2019-01-19T05:44:19.470Z,20.70
2019-01-19T05:45:19.438Z,21.00
2019-01-19T05:46:21.458Z,19.70
2019-01-19T05:47:19.346Z,18.50
2019-01-19T05:48:19.473Z,19.80
2019-01-19T05:49:19.543Z,20.80
2019-01-19T05:50:19.515Z,20.20
2019-01-19T05:51:19.441Z,18.60
2019-01-19T05:52:19.439Z,19.50
2019-01-19T05:53:19.483Z,20.10
2019-01-19T05:54:19.457Z,19.80
2019-01-19T05:55:19.487Z,21.10
2019-01-19T05:56:19.499Z,20.50
2019-01-19T05:57:19.517Z,20.80
2019-01-19T05:58:19.595Z,19.60
2019-01-19T05:59:19.528Z,19.30
2019-01-19T06:00:19.675Z,23.90
2019-01-19T06:01:19.691Z,21.40
2019-01-19T06:02:19.582Z,21.90
2019-01-19T06:03:19.722Z,18.20
2019-01-19T06:04:19.628Z,20.00
2019-01-19T06:05:19.637Z,19.90
2019-01-19T06:06:19.655Z,19.30
2019-01-19T06:07:19.789Z,21.30
2019-01-19T06:08:19.757Z,20.80
2019-01-19T06:09:19.826Z,18.80
2019-01-19T06:10:19.735Z,19.20
2019-01-19T06:11:19.861Z,18.40
2019-01-19T06:12:19.875Z,19.70
2019-01-19T06:13:19.835Z,21.40
2019-01-19T06:14:19.798Z,19.20
2019-01-19T06:15:19.794Z,19.30
2019-01-19T06:16:19.815Z,19.10
2019-01-19T06:17:19.831Z,18.80
2019-01-19T06:18:19.915Z,19.10
2019-01-19T06:19:19.876Z,19.70
2019-01-19T06:21:19.974Z,19.00
2019-01-19T06:22:20.049Z,18.60
2019-01-19T06:23:20.214Z,20.20
2019-01-19T06:24:20.083Z,20.20
2019-01-19T06:25:19.984Z,18.80
2019-01-19T06:26:20.105Z,20.50
2019-01-19T06:27:20.009Z,20.80
2019-01-19T06:28:20.071Z,18.60
2019-01-19T06:29:20.045Z,17.50
2019-01-19T06:30:20.173Z,18.90
2019-01-19T06:31:20.187Z,18.80
2019-01-19T06:32:20.108Z,18.10
2019-01-19T06:33:20.223Z,17.50
2019-01-19T06:34:20.129Z,17.70
2019-01-19T06:35:20.254Z,18.90
2019-01-19T06:36:20.168Z,18.50
2019-01-19T06:37:20.189Z,17.30
2019-01-19T06:38:20.194Z,17.60
2019-01-19T06:39:20.323Z,16.90
2019-01-19T06:40:20.390Z,17.60
2019-01-19T06:41:20.353Z,17.10
2019-01-19T06:42:20.367Z,16.40
2019-01-19T06:43:20.387Z,18.00
2019-01-19T06:44:20.406Z,17.90
2019-01-19T06:45:20.523Z,18.20
2019-01-19T06:46:20.320Z,18.10
2019-01-19T06:47:20.461Z,17.00
2019-01-19T06:48:20.362Z,17.10
2019-01-19T06:49:20.368Z,18.50
2019-01-19T06:50:20.561Z,17.60
2019-01-19T06:51:20.418Z,17.10
2019-01-19T06:52:20.534Z,19.30
2019-01-19T06:53:20.438Z,17.60
2019-01-19T06:54:20.568Z,20.70
2019-01-19T06:55:20.734Z,20.50
2019-01-19T06:56:20.501Z,19.70
2019-01-19T06:57:20.616Z,19.00
2019-01-19T06:58:20.525Z,16.60
2019-01-19T06:59:20.542Z,19.40
2019-01-19T07:00:20.718Z,15.80
2019-01-19T07:01:20.692Z,15.20
2019-01-19T07:02:20.589Z,15.00
2019-01-19T07:03:20.711Z,16.80
2019-01-19T07:04:20.617Z,16.80
2019-01-19T07:05:20.730Z,16.60
2019-01-19T07:06:20.765Z,17.40
2019-01-19T07:07:20.786Z,16.80
2019-01-19T07:08:20.696Z,17.20
2019-01-19T07:09:20.684Z,17.30
2019-01-19T07:10:20.787Z,17.00
2019-01-19T07:11:20.840Z,17.40
2019-01-19T07:12:20.723Z,15.30
2019-01-19T07:13:20.804Z,12.30
2019-01-19T07:14:20.795Z,13.20
2019-01-19T07:15:20.952Z,13.80
2019-01-19T07:16:20.813Z,10.90
2019-01-19T07:17:20.937Z,9.70
2019-01-19T07:18:20.832Z,11.30
2019-01-19T07:19:20.973Z,10.80
2019-01-19T07:20:20.926Z,9.00
2019-01-19T07:21:21.019Z,11.00
2019-01-19T07:22:20.904Z,9.60
2019-01-19T07:23:20.911Z,10.20
2019-01-19T07:24:21.042Z,10.10
2019-01-19T07:25:20.965Z,12.00
2019-01-19T07:26:20.980Z,9.90
2019-01-19T07:27:20.980Z,10.00
2019-01-19T07:28:21.022Z,12.70
2019-01-19T07:29:21.293Z,11.00
2019-01-19T07:30:21.055Z,11.60
2019-01-19T07:31:21.073Z,12.30
2019-01-19T07:32:21.068Z,12.90
2019-01-19T07:33:21.121Z,12.40
2019-01-19T07:34:21.373Z,11.80
2019-01-19T07:35:21.228Z,11.90
2019-01-19T07:36:21.130Z,12.00
2019-01-19T07:37:21.272Z,14.90
2019-01-19T07:38:21.191Z,11.80
2019-01-19T07:39:21.359Z,13.20
2019-01-19T07:40:21.310Z,14.60
2019-01-19T07:41:21.224Z,14.50
2019-01-19T07:42:21.247Z,13.60
2019-01-19T07:43:21.363Z,14.60
2019-01-19T07:44:21.425Z,16.40
2019-01-19T07:45:21.274Z,14.70
2019-01-19T07:46:21.414Z,14.90
2019-01-19T07:47:21.311Z,14.60
2019-01-19T07:48:21.326Z,15.00
2019-01-19T07:49:21.450Z,16.10
2019-01-19T07:50:21.357Z,15.30
2019-01-19T07:51:21.492Z,16.40
2019-01-19T07:52:21.430Z,16.20
2019-01-19T07:53:21.531Z,15.30
2019-01-19T07:54:21.594Z,17.10
2019-01-19T07:55:21.435Z,17.20
2019-01-19T07:56:21.455Z,16.10
2019-01-19T07:57:21.490Z,17.20
2019-01-19T07:58:21.486Z,17.80
2019-01-19T07:59:21.770Z,16.60
2019-01-19T08:00:21.927Z,18.70
2019-01-19T08:01:21.650Z,17.50
2019-01-19T08:02:21.671Z,16.80
2019-01-19T08:03:21.571Z,17.50
2019-01-19T08:04:21.699Z,18.10
2019-01-19T08:05:21.782Z,18.10
2019-01-19T08:06:21.733Z,18.20
2019-01-19T08:07:21.626Z,16.90
2019-01-19T08:08:21.661Z,15.30
2019-01-19T08:09:21.707Z,15.70
2019-01-19T08:10:21.745Z,16.90
2019-01-19T08:11:21.824Z,16.60
2019-01-19T08:12:21.729Z,16.50
2019-01-19T08:13:21.745Z,15.70
2019-01-19T08:14:21.864Z,15.30
2019-01-19T08:15:21.933Z,15.10
2019-01-19T08:16:21.786Z,13.90
2019-01-19T08:17:21.801Z,13.10
2019-01-19T08:18:21.836Z,13.40
2019-01-19T08:19:21.944Z,12.80
2019-01-19T08:20:22.006Z,13.40
2019-01-19T08:21:21.884Z,12.40
2019-01-19T08:22:21.894Z,13.20
2019-01-19T08:23:22.010Z,12.90
2019-01-19T08:24:22.030Z,12.90
2019-01-19T08:25:22.093Z,13.10
2019-01-19T08:26:21.930Z,13.10
2019-01-19T08:27:21.952Z,12.90
2019-01-19T08:28:22.099Z,13.50
2019-01-19T08:29:21.990Z,13.70
2019-01-19T08:30:22.058Z,14.40
2019-01-19T08:31:22.091Z,13.60
2019-01-19T08:32:22.029Z,13.90
2019-01-19T08:33:22.045Z,13.90
2019-01-19T08:34:22.110Z,13.80
2019-01-19T08:35:22.097Z,12.80
2019-01-19T08:36:22.113Z,12.90
2019-01-19T08:37:24.565Z,14.20
2019-01-19T08:38:22.127Z,13.30
2019-01-19T08:39:22.193Z,13.70
2019-01-19T08:40:22.158Z,13.30
2019-01-19T08:41:22.194Z,14.30
2019-01-19T08:42:22.313Z,14.70
2019-01-19T08:43:22.195Z,13.70
2019-01-19T08:44:22.400Z,13.90
2019-01-19T08:45:22.266Z,14.00
2019-01-19T08:46:22.314Z,13.40
2019-01-19T08:47:22.287Z,13.60
2019-01-19T08:48:22.303Z,13.30
2019-01-19T08:49:22.545Z,12.80
2019-01-19T08:50:22.327Z,12.60
2019-01-19T08:51:22.354Z,12.20
2019-01-19T08:52:22.368Z,12.30
2019-01-19T08:53:22.384Z,12.20
2019-01-19T08:54:22.540Z,13.00
2019-01-19T08:55:22.527Z,11.40
2019-01-19T08:56:22.543Z,11.60
2019-01-19T08:57:22.442Z,11.80
2019-01-19T08:58:22.474Z,11.90
2019-01-19T08:59:22.614Z,12.30
2019-01-19T09:00:22.485Z,11.70
2019-01-19T09:01:22.513Z,11.00
2019-01-19T09:02:22.552Z,12.40
2019-01-19T09:03:22.664Z,11.40
2019-01-19T09:04:22.617Z,11.80
2019-01-19T09:05:22.586Z,11.50
2019-01-19T09:06:22.715Z,11.30
2019-01-19T09:07:22.612Z,10.90
2019-01-19T09:08:22.742Z,11.10
2019-01-19T09:09:22.797Z,10.80
2019-01-19T09:10:22.776Z,10.50
2019-01-19T09:11:22.790Z,11.40
2019-01-19T09:12:22.710Z,12.70
2019-01-19T09:13:22.828Z,10.50
2019-01-19T09:14:22.790Z,11.20
2019-01-19T09:15:22.732Z,10.40
2019-01-19T09:16:22.756Z,10.20
2019-01-19T09:17:22.895Z,10.40
2019-01-19T09:18:22.851Z,11.40
2019-01-19T09:19:22.901Z,10.70
2019-01-19T09:20:22.820Z,12.10
2019-01-19T09:21:22.871Z,11.30
2019-01-19T09:22:22.859Z,12.50
2019-01-19T09:23:22.893Z,11.50
2019-01-19T09:24:23.065Z,12.70
2019-01-19T09:25:22.960Z,12.20
2019-01-19T09:26:22.949Z,12.60
2019-01-19T09:27:23.120Z,12.60
2019-01-19T09:28:23.093Z,13.00
2019-01-19T09:29:23.112Z,13.70
2019-01-19T09:30:23.124Z,13.30
2019-01-19T09:31:23.017Z,13.10
2019-01-19T09:32:23.216Z,13.50
2019-01-19T09:33:23.181Z,13.30
2019-01-19T09:34:23.067Z,16.30
2019-01-19T09:35:23.208Z,14.70
2019-01-19T09:36:23.230Z,14.90
2019-01-19T09:37:23.138Z,15.00
2019-01-19T09:38:23.287Z,15.50
2019-01-19T09:39:23.278Z,16.60
2019-01-19T09:40:23.232Z,20.70
2019-01-19T09:41:23.320Z,16.30
2019-01-19T09:42:23.234Z,18.20
2019-01-19T09:43:23.342Z,15.70
2019-01-19T09:44:23.242Z,16.90
2019-01-19T09:45:23.266Z,17.30
2019-01-19T09:46:23.292Z,17.70
2019-01-19T09:47:23.296Z,16.50
2019-01-19T09:48:23.471Z,16.90
2019-01-19T09:49:23.457Z,16.20
2019-01-19T09:50:23.355Z,16.90
2019-01-19T09:51:23.488Z,17.70
2019-01-19T09:52:23.416Z,17.30
2019-01-19T09:53:23.472Z,18.10
2019-01-19T09:54:24.911Z,17.90
2019-01-19T09:55:23.453Z,19.60
2019-01-19T09:56:23.577Z,17.40
2019-01-19T09:57:23.481Z,17.20
2019-01-19T09:58:23.554Z,17.30
2019-01-19T09:59:23.633Z,17.30
2019-01-19T10:00:23.578Z,17.70
2019-01-19T10:01:23.554Z,16.90
2019-01-19T10:02:23.690Z,17.80
2019-01-19T10:03:23.589Z,18.10
2019-01-19T10:04:23.615Z,17.80
2019-01-19T10:05:23.857Z,17.90
2019-01-19T10:06:23.776Z,16.10
2019-01-19T10:07:23.779Z,16.80
2019-01-19T10:08:23.668Z,15.60
2019-01-19T10:09:23.710Z,15.60
2019-01-19T10:10:23.781Z,16.80
2019-01-19T10:11:23.852Z,16.10
2019-01-19T10:12:23.848Z,15.00
2019-01-19T10:13:23.900Z,14.60
2019-01-19T10:14:23.806Z,13.10
2019-01-19T10:15:23.941Z,13.40
2019-01-19T10:16:23.825Z,13.60
2019-01-19T10:17:23.898Z,13.80
2019-01-19T10:18:23.863Z,13.90
2019-01-19T10:19:23.884Z,14.20
2019-01-19T10:20:24.023Z,13.60
2019-01-19T10:21:24.075Z,14.60
2019-01-19T10:22:24.061Z,15.00
2019-01-19T10:23:24.086Z,15.10
2019-01-19T10:24:23.978Z,14.20
2019-01-19T10:25:24.125Z,14.70
2019-01-19T10:26:24.136Z,15.80
2019-01-19T10:27:24.170Z,16.50
2019-01-19T10:28:24.060Z,14.60
2019-01-19T10:29:24.100Z,13.50
2019-01-19T10:30:24.229Z,12.90
2019-01-19T10:31:24.336Z,13.90
2019-01-19T10:32:24.257Z,13.40
2019-01-19T10:33:24.173Z,13.40
2019-01-19T10:34:24.310Z,13.10
2019-01-19T10:35:24.245Z,12.00
2019-01-19T10:36:24.871Z,12.70
2019-01-19T10:37:24.262Z,15.30
2019-01-19T10:38:24.282Z,12.30
2019-01-19T10:39:24.407Z,11.00
2019-01-19T10:40:24.314Z,11.20
2019-01-19T10:41:24.385Z,11.20
2019-01-19T10:42:24.366Z,11.20
2019-01-19T10:43:24.405Z,13.30
2019-01-19T10:44:24.390Z,11.10
2019-01-19T10:45:24.456Z,10.80
2019-01-19T10:46:24.483Z,10.70
2019-01-19T10:47:24.499Z,9.70
2019-01-19T10:48:24.483Z,9.10
2019-01-19T10:49:24.523Z,8.70
2019-01-19T10:50:24.532Z,8.20
2019-01-19T10:51:24.725Z,8.60
2019-01-19T10:52:24.591Z,8.60
2019-01-19T10:53:24.622Z,8.90
2019-01-19T10:54:24.636Z,6.70
2019-01-19T10:55:24.664Z,6.90
2019-01-19T10:56:24.722Z,6.20
2019-01-19T10:57:24.830Z,7.10
2019-01-19T10:58:24.732Z,6.70
2019-01-19T10:59:24.749Z,5.80
2019-01-19T11:00:24.772Z,5.60
2019-01-19T11:01:24.957Z,5.50
2019-01-19T11:02:24.824Z,4.80
2019-01-19T11:03:24.970Z,5.10
2019-01-19T11:04:24.986Z,5.10
2019-01-19T11:05:24.885Z,7.90
2019-01-19T11:06:25.090Z,4.70
2019-01-19T11:07:24.951Z,4.80
2019-01-19T11:08:24.964Z,4.10
2019-01-19T11:09:25.069Z,4.80
2019-01-19T11:10:25.083Z,6.50
2019-01-19T11:11:25.174Z,5.20
2019-01-19T11:12:25.065Z,4.20
2019-01-19T11:13:25.098Z,5.00
2019-01-19T11:14:25.121Z,4.90
2019-01-19T11:15:25.208Z,7.20
2019-01-19T11:16:25.181Z,4.60
2019-01-19T11:17:25.218Z,5.40
2019-01-19T11:18:25.337Z,5.80
2019-01-19T11:19:25.266Z,4.20
2019-01-19T11:20:25.695Z,5.10
2019-01-19T11:21:25.308Z,6.00
2019-01-19T11:22:25.326Z,5.60
2019-01-19T11:23:25.345Z,6.00
2019-01-19T11:24:25.368Z,7.10
2019-01-19T11:25:25.622Z,7.10
2019-01-19T11:26:25.545Z,5.30
2019-01-19T11:27:25.585Z,4.80
2019-01-19T11:28:25.597Z,6.20
2019-01-19T11:29:25.628Z,4.20
2019-01-19T11:30:25.747Z,5.00
2019-01-19T11:31:25.575Z,6.30
2019-01-19T11:32:25.577Z,6.10
2019-01-19T11:33:25.610Z,5.00
2019-01-19T11:34:25.640Z,5.70
2019-01-19T11:35:25.805Z,6.90
2019-01-19T11:36:25.681Z,4.90
2019-01-19T11:37:25.838Z,5.70
2019-01-19T11:38:25.760Z,7.10
2019-01-19T11:39:25.774Z,14.50
2019-01-19T11:40:25.833Z,6.60
2019-01-19T11:41:25.840Z,5.90
2019-01-19T11:43:25.868Z,4.90
2019-01-19T11:44:25.928Z,4.80
2019-01-19T11:45:26.034Z,6.30
2019-01-19T11:46:25.958Z,5.20
2019-01-19T11:47:25.977Z,4.20
2019-01-19T11:48:26.024Z,5.90
2019-01-19T11:49:26.031Z,5.50
2019-01-19T11:50:26.116Z,5.40
2019-01-19T11:51:26.218Z,4.40
2019-01-19T11:52:26.107Z,4.50
2019-01-19T11:53:26.138Z,5.00
2019-01-19T11:54:26.168Z,4.40
2019-01-19T11:55:26.363Z,4.10
2019-01-19T11:56:26.241Z,6.20
2019-01-19T11:57:26.270Z,7.80
2019-01-19T11:58:26.276Z,5.60
2019-01-19T11:59:26.304Z,4.30
2019-01-19T12:00:26.430Z,5.10
2019-01-19T12:01:26.372Z,5.60
2019-01-19T12:02:26.385Z,5.30
2019-01-19T12:03:26.431Z,4.00
2019-01-19T12:04:26.459Z,4.40
2019-01-19T12:05:26.518Z,3.60
2019-01-19T12:06:26.490Z,4.10
2019-01-19T12:07:26.530Z,3.40
2019-01-19T12:08:26.569Z,5.00
2019-01-19T12:09:26.706Z,3.90
2019-01-19T12:10:26.716Z,4.70
2019-01-19T12:11:26.761Z,3.60
2019-01-19T12:12:26.790Z,5.50
2019-01-19T12:13:26.817Z,4.00
2019-01-19T12:14:26.730Z,4.20
2019-01-19T12:15:26.844Z,4.30
2019-01-19T12:16:26.777Z,3.70
2019-01-19T12:17:26.813Z,6.00
2019-01-19T12:18:26.833Z,4.60
2019-01-19T12:19:26.856Z,3.80
2019-01-19T12:20:26.956Z,3.80
2019-01-19T12:21:26.905Z,6.40
2019-01-19T12:22:26.938Z,4.70
2019-01-19T12:23:26.978Z,6.60
2019-01-19T12:24:27.106Z,4.20
2019-01-19T12:25:27.048Z,4.10
2019-01-19T12:26:27.071Z,4.10
2019-01-19T12:27:27.083Z,3.90
2019-01-19T12:28:27.129Z,5.20
2019-01-19T12:29:27.245Z,3.70
2019-01-19T12:30:27.165Z,3.60
2019-01-19T12:31:27.213Z,4.80
2019-01-19T12:32:27.349Z,3.80
2019-01-19T12:33:27.242Z,3.80
2019-01-19T12:34:27.371Z,5.30
2019-01-19T12:35:27.305Z,4.00
2019-01-19T12:36:27.358Z,5.50
2019-01-19T12:37:27.362Z,5.60
2019-01-19T12:38:27.391Z,4.30
2019-01-19T12:39:27.495Z,5.50
2019-01-19T12:40:27.470Z,5.50
2019-01-19T12:41:27.500Z,6.90
2019-01-19T12:42:27.506Z,5.70
2019-01-19T12:43:27.555Z,6.10
2019-01-19T12:44:27.794Z,3.80
2019-01-19T12:45:27.595Z,4.70
2019-01-19T12:46:27.653Z,5.50
2019-01-19T12:47:27.650Z,4.80
2019-01-19T12:48:27.683Z,6.20
2019-01-19T12:49:27.831Z,5.10
2019-01-19T12:50:27.743Z,4.10
2019-01-19T12:51:27.905Z,3.90
2019-01-19T12:52:27.922Z,4.60
2019-01-19T12:53:27.826Z,3.70
2019-01-19T12:54:28.027Z,3.40
2019-01-19T12:55:27.880Z,4.10
2019-01-19T12:56:27.918Z,5.10
2019-01-19T12:57:28.076Z,3.60
2019-01-19T12:58:28.098Z,3.20
2019-01-19T12:59:28.236Z,3.20
2019-01-19T13:00:28.032Z,3.70
2019-01-19T13:01:28.073Z,3.10
2019-01-19T13:02:28.091Z,3.60